sensor_id;sensor_type;location;lat;lon;timestamp;temperature;humidity
9984;DHT22;16737;50.932;6.780;2024-01-25T00:01:49;11.90;93.70
9984;DHT22;16737;50.932;6.780;2024-01-25T00:04:16;11.90;93.70
9984;DHT22;16737;50.932;6.780;2024-01-25T00:06:43;11.90;93.70
9984;DHT22;16737;50.932;6.780;2024-01-25T00:09:11;11.90;93.70
9984;DHT22;16737;50.932;6.780;2024-01-25T00:11:38;11.90;93.70
9984;DHT22;16737;50.932;6.780;2024-01-25T00:14:05;11.90;93.70
9984;DHT22;16737;50.932;6.780;2024-01-25T00:16:32;11.90;93.70
9984;DHT22;16737;50.932;6.780;2024-01-25T00:18:59;11.90;93.70
9984;DHT22;16737;50.932;6.780;2024-01-25T00:21:26;11.90;93.80
9984;DHT22;16737;50.932;6.780;2024-01-25T00:23:53;11.90;93.80
9984;DHT22;16737;50.932;6.780;2024-01-25T00:26:22;11.90;93.80
9984;DHT22;16737;50.932;6.780;2024-01-25T00:28:49;11.90;93.90
9984;DHT22;16737;50.932;6.780;2024-01-25T00:31:16;11.90;93.90
9984;DHT22;16737;50.932;6.780;2024-01-25T00:33:43;11.90;93.90
9984;DHT22;16737;50.932;6.780;2024-01-25T00:36:11;11.90;93.90
9984;DHT22;16737;50.932;6.780;2024-01-25T00:38:40;11.90;93.90
9984;DHT22;16737;50.932;6.780;2024-01-25T00:41:09;11.90;94.20
9984;DHT22;16737;50.932;6.780;2024-01-25T00:43:38;11.90;93.90
9984;DHT22;16737;50.932;6.780;2024-01-25T00:46:06;11.90;93.90
9984;DHT22;16737;50.932;6.780;2024-01-25T00:48:34;11.90;93.90
9984;DHT22;16737;50.932;6.780;2024-01-25T00:51:04;11.90;93.90
9984;DHT22;16737;50.932;6.780;2024-01-25T00:53:34;11.90;94.00
9984;DHT22;16737;50.932;6.780;2024-01-25T00:56:02;11.80;93.90
9984;DHT22;16737;50.932;6.780;2024-01-25T00:58:30;11.80;93.90
9984;DHT22;16737;50.932;6.780;2024-01-25T01:00:59;11.80;93.90
9984;DHT22;16737;50.932;6.780;2024-01-25T01:03:30;11.80;93.90
9984;DHT22;16737;50.932;6.780;2024-01-25T01:05:58;11.80;93.90
9984;DHT22;16737;50.932;6.780;2024-01-25T01:08:26;11.80;93.90
9984;DHT22;16737;50.932;6.780;2024-01-25T01:10:53;11.80;93.90
9984;DHT22;16737;50.932;6.780;2024-01-25T01:13:20;11.80;93.90
9984;DHT22;16737;50.932;6.780;2024-01-25T01:15:47;11.80;93.90
9984;DHT22;16737;50.932;6.780;2024-01-25T01:18:16;11.80;93.90
9984;DHT22;16737;50.932;6.780;2024-01-25T01:20:43;11.80;93.90
9984;DHT22;16737;50.932;6.780;2024-01-25T01:23:10;11.70;93.90
9984;DHT22;16737;50.932;6.780;2024-01-25T01:25:37;11.70;93.90
9984;DHT22;16737;50.932;6.780;2024-01-25T01:28:04;11.70;93.90
9984;DHT22;16737;50.932;6.780;2024-01-25T01:30:31;11.70;93.90
9984;DHT22;16737;50.932;6.780;2024-01-25T01:32:58;11.70;93.90
9984;DHT22;16737;50.932;6.780;2024-01-25T01:35:26;11.60;93.90
9984;DHT22;16737;50.932;6.780;2024-01-25T01:37:53;11.60;93.90
9984;DHT22;16737;50.932;6.780;2024-01-25T01:40:20;11.60;93.90
9984;DHT22;16737;50.932;6.780;2024-01-25T01:42:47;11.60;93.90
9984;DHT22;16737;50.932;6.780;2024-01-25T01:45:14;11.60;94.00
9984;DHT22;16737;50.932;6.780;2024-01-25T01:47:41;11.50;94.00
9984;DHT22;16737;50.932;6.780;2024-01-25T01:50:09;11.50;94.00
9984;DHT22;16737;50.932;6.780;2024-01-25T01:52:37;11.50;94.00
9984;DHT22;16737;50.932;6.780;2024-01-25T01:55:06;11.50;94.10
9984;DHT22;16737;50.932;6.780;2024-01-25T01:57:34;11.40;94.10
9984;DHT22;16737;50.932;6.780;2024-01-25T02:00:03;11.40;94.10
9984;DHT22;16737;50.932;6.780;2024-01-25T02:02:33;11.40;94.10
9984;DHT22;16737;50.932;6.780;2024-01-25T02:05:00;11.40;94.00
9984;DHT22;16737;50.932;6.780;2024-01-25T02:07:28;11.40;94.10
9984;DHT22;16737;50.932;6.780;2024-01-25T02:09:58;11.30;94.20
9984;DHT22;16737;50.932;6.780;2024-01-25T02:12:25;11.30;94.20
9984;DHT22;16737;50.932;6.780;2024-01-25T02:14:52;11.30;94.10
9984;DHT22;16737;50.932;6.780;2024-01-25T02:17:19;11.30;94.10
9984;DHT22;16737;50.932;6.780;2024-01-25T02:19:46;11.20;94.10
9984;DHT22;16737;50.932;6.780;2024-01-25T02:22:18;11.20;94.10
9984;DHT22;16737;50.932;6.780;2024-01-25T02:24:45;11.20;94.20
9984;DHT22;16737;50.932;6.780;2024-01-25T02:27:12;11.20;94.10
9984;DHT22;16737;50.932;6.780;2024-01-25T02:29:39;11.20;94.20
9984;DHT22;16737;50.932;6.780;2024-01-25T02:32:06;11.10;94.10
9984;DHT22;16737;50.932;6.780;2024-01-25T02:34:33;11.10;94.20
9984;DHT22;16737;50.932;6.780;2024-01-25T02:37:00;11.10;94.20
9984;DHT22;16737;50.932;6.780;2024-01-25T02:39:29;11.10;94.20
9984;DHT22;16737;50.932;6.780;2024-01-25T02:41:56;11.00;94.30
9984;DHT22;16737;50.932;6.780;2024-01-25T02:44:23;11.10;94.40
9984;DHT22;16737;50.932;6.780;2024-01-25T02:46:50;11.10;94.40
9984;DHT22;16737;50.932;6.780;2024-01-25T02:49:19;11.10;94.40
9984;DHT22;16737;50.932;6.780;2024-01-25T02:51:46;11.10;94.50
9984;DHT22;16737;50.932;6.780;2024-01-25T02:54:13;11.00;94.40
9984;DHT22;16737;50.932;6.780;2024-01-25T02:56:41;11.00;94.50
9984;DHT22;16737;50.932;6.780;2024-01-25T02:59:08;11.10;94.50
9984;DHT22;16737;50.932;6.780;2024-01-25T03:01:40;11.00;94.40
9984;DHT22;16737;50.932;6.780;2024-01-25T03:04:07;11.10;94.60
9984;DHT22;16737;50.932;6.780;2024-01-25T03:06:34;11.10;94.50
9984;DHT22;16737;50.932;6.780;2024-01-25T03:09:01;11.00;94.50
9984;DHT22;16737;50.932;6.780;2024-01-25T03:11:30;11.10;94.50
9984;DHT22;16737;50.932;6.780;2024-01-25T03:13:58;11.00;94.40
9984;DHT22;16737;50.932;6.780;2024-01-25T03:16:26;11.00;94.50
9984;DHT22;16737;50.932;6.780;2024-01-25T03:18:53;11.00;94.50
9984;DHT22;16737;50.932;6.780;2024-01-25T03:21:20;11.00;94.50
9984;DHT22;16737;50.932;6.780;2024-01-25T03:23:48;11.00;94.50
9984;DHT22;16737;50.932;6.780;2024-01-25T03:26:15;10.90;94.50
9984;DHT22;16737;50.932;6.780;2024-01-25T03:28:42;11.00;94.50
9984;DHT22;16737;50.932;6.780;2024-01-25T03:31:10;10.90;94.50
9984;DHT22;16737;50.932;6.780;2024-01-25T03:33:37;10.90;94.50
9984;DHT22;16737;50.932;6.780;2024-01-25T03:36:05;10.90;94.50
9984;DHT22;16737;50.932;6.780;2024-01-25T03:38:33;10.90;94.60
9984;DHT22;16737;50.932;6.780;2024-01-25T03:41:00;10.80;94.60
9984;DHT22;16737;50.932;6.780;2024-01-25T03:43:27;10.80;94.60
9984;DHT22;16737;50.932;6.780;2024-01-25T03:45:54;10.80;94.60
9984;DHT22;16737;50.932;6.780;2024-01-25T03:48:22;10.80;94.60
9984;DHT22;16737;50.932;6.780;2024-01-25T03:50:50;10.80;94.70
9984;DHT22;16737;50.932;6.780;2024-01-25T03:53:21;10.80;94.70
9984;DHT22;16737;50.932;6.780;2024-01-25T03:55:49;10.80;94.70
9984;DHT22;16737;50.932;6.780;2024-01-25T03:58:17;10.80;94.80
9984;DHT22;16737;50.932;6.780;2024-01-25T04:00:45;10.70;94.70
9984;DHT22;16737;50.932;6.780;2024-01-25T04:03:13;10.70;94.70
9984;DHT22;16737;50.932;6.780;2024-01-25T04:05:40;10.70;94.80
9984;DHT22;16737;50.932;6.780;2024-01-25T04:08:07;10.70;94.80
9984;DHT22;16737;50.932;6.780;2024-01-25T04:10:35;10.70;94.80
9984;DHT22;16737;50.932;6.780;2024-01-25T04:13:02;10.70;94.80
9984;DHT22;16737;50.932;6.780;2024-01-25T04:15:30;10.70;95.10
9984;DHT22;16737;50.932;6.780;2024-01-25T04:17:57;10.60;94.80
9984;DHT22;16737;50.932;6.780;2024-01-25T04:20:23;10.60;94.80
9984;DHT22;16737;50.932;6.780;2024-01-25T04:22:51;10.60;95.10
9984;DHT22;16737;50.932;6.780;2024-01-25T04:25:18;10.60;94.80
9984;DHT22;16737;50.932;6.780;2024-01-25T04:27:45;10.60;94.80
9984;DHT22;16737;50.932;6.780;2024-01-25T04:30:12;10.60;94.80
9984;DHT22;16737;50.932;6.780;2024-01-25T04:32:40;10.50;94.80
9984;DHT22;16737;50.932;6.780;2024-01-25T04:35:10;10.50;94.80
9984;DHT22;16737;50.932;6.780;2024-01-25T04:37:37;10.50;94.80
9984;DHT22;16737;50.932;6.780;2024-01-25T04:40:06;10.50;94.90
9984;DHT22;16737;50.932;6.780;2024-01-25T04:42:34;10.50;95.00
9984;DHT22;16737;50.932;6.780;2024-01-25T04:45:01;10.40;94.90
9984;DHT22;16737;50.932;6.780;2024-01-25T04:47:28;10.40;95.00
9984;DHT22;16737;50.932;6.780;2024-01-25T04:49:57;10.40;95.00
9984;DHT22;16737;50.932;6.780;2024-01-25T04:52:24;10.40;95.00
9984;DHT22;16737;50.932;6.780;2024-01-25T04:54:51;10.30;95.00
9984;DHT22;16737;50.932;6.780;2024-01-25T04:57:20;10.30;95.00
9984;DHT22;16737;50.932;6.780;2024-01-25T04:59:47;10.30;95.00
9984;DHT22;16737;50.932;6.780;2024-01-25T05:02:14;10.30;95.00
9984;DHT22;16737;50.932;6.780;2024-01-25T05:04:41;10.30;95.00
9984;DHT22;16737;50.932;6.780;2024-01-25T05:07:08;10.20;95.00
9984;DHT22;16737;50.932;6.780;2024-01-25T05:09:35;10.20;95.00
9984;DHT22;16737;50.932;6.780;2024-01-25T05:12:02;10.20;95.00
9984;DHT22;16737;50.932;6.780;2024-01-25T05:14:31;10.20;95.10
9984;DHT22;16737;50.932;6.780;2024-01-25T05:16:59;10.10;95.10
9984;DHT22;16737;50.932;6.780;2024-01-25T05:19:26;10.10;95.10
9984;DHT22;16737;50.932;6.780;2024-01-25T05:21:54;10.10;95.10
9984;DHT22;16737;50.932;6.780;2024-01-25T05:24:22;10.10;95.10
9984;DHT22;16737;50.932;6.780;2024-01-25T05:26:48;10.10;95.10
9984;DHT22;16737;50.932;6.780;2024-01-25T05:29:15;10.00;95.10
9984;DHT22;16737;50.932;6.780;2024-01-25T05:31:44;10.00;95.10
9984;DHT22;16737;50.932;6.780;2024-01-25T05:34:11;10.00;95.20
9984;DHT22;16737;50.932;6.780;2024-01-25T05:36:38;10.00;95.20
9984;DHT22;16737;50.932;6.780;2024-01-25T05:39:07;10.00;95.20
9984;DHT22;16737;50.932;6.780;2024-01-25T05:41:34;9.90;95.60
9984;DHT22;16737;50.932;6.780;2024-01-25T05:44:01;9.90;95.70
9984;DHT22;16737;50.932;6.780;2024-01-25T05:46:29;9.90;95.70
9984;DHT22;16737;50.932;6.780;2024-01-25T05:48:57;9.80;95.60
9984;DHT22;16737;50.932;6.780;2024-01-25T05:51:24;9.90;95.70
9984;DHT22;16737;50.932;6.780;2024-01-25T05:53:51;9.80;95.60
9984;DHT22;16737;50.932;6.780;2024-01-25T05:56:18;9.80;95.60
9984;DHT22;16737;50.932;6.780;2024-01-25T05:58:45;9.80;95.70
9984;DHT22;16737;50.932;6.780;2024-01-25T06:01:12;9.70;95.70
9984;DHT22;16737;50.932;6.780;2024-01-25T06:03:40;9.80;95.70
9984;DHT22;16737;50.932;6.780;2024-01-25T06:06:08;9.70;96.10
9984;DHT22;16737;50.932;6.780;2024-01-25T06:08:35;9.70;95.80
9984;DHT22;16737;50.932;6.780;2024-01-25T06:11:02;9.70;95.80
9984;DHT22;16737;50.932;6.780;2024-01-25T06:13:31;9.70;95.80
9984;DHT22;16737;50.932;6.780;2024-01-25T06:15:58;9.60;95.80
9984;DHT22;16737;50.932;6.780;2024-01-25T06:18:26;9.70;95.80
9984;DHT22;16737;50.932;6.780;2024-01-25T06:20:53;9.70;95.80
9984;DHT22;16737;50.932;6.780;2024-01-25T06:23:21;9.60;95.80
9984;DHT22;16737;50.932;6.780;2024-01-25T06:25:48;9.60;95.80
9984;DHT22;16737;50.932;6.780;2024-01-25T06:28:14;9.60;95.80
9984;DHT22;16737;50.932;6.780;2024-01-25T06:30:41;9.60;95.80
9984;DHT22;16737;50.932;6.780;2024-01-25T06:33:09;9.60;95.80
9984;DHT22;16737;50.932;6.780;2024-01-25T06:35:36;9.60;95.80
9984;DHT22;16737;50.932;6.780;2024-01-25T06:38:03;9.50;95.80
9984;DHT22;16737;50.932;6.780;2024-01-25T06:40:31;9.50;95.80
9984;DHT22;16737;50.932;6.780;2024-01-25T06:42:58;9.50;95.80
9984;DHT22;16737;50.932;6.780;2024-01-25T06:45:25;9.50;95.80
9984;DHT22;16737;50.932;6.780;2024-01-25T06:47:52;9.50;95.90
9984;DHT22;16737;50.932;6.780;2024-01-25T06:50:19;9.40;95.80
9984;DHT22;16737;50.932;6.780;2024-01-25T06:52:46;9.50;95.90
9984;DHT22;16737;50.932;6.780;2024-01-25T06:55:13;9.40;95.90
9984;DHT22;16737;50.932;6.780;2024-01-25T06:57:42;9.40;96.00
9984;DHT22;16737;50.932;6.780;2024-01-25T07:00:10;9.40;96.00
9984;DHT22;16737;50.932;6.780;2024-01-25T07:02:40;9.40;96.00
9984;DHT22;16737;50.932;6.780;2024-01-25T07:05:08;9.40;96.00
9984;DHT22;16737;50.932;6.780;2024-01-25T07:07:35;9.40;96.10
9984;DHT22;16737;50.932;6.780;2024-01-25T07:10:04;9.30;96.10
9984;DHT22;16737;50.932;6.780;2024-01-25T07:12:31;9.40;96.20
9984;DHT22;16737;50.932;6.780;2024-01-25T07:15:00;9.40;96.20
9984;DHT22;16737;50.932;6.780;2024-01-25T07:17:27;9.40;96.20
9984;DHT22;16737;50.932;6.780;2024-01-25T07:19:54;9.40;96.30
9984;DHT22;16737;50.932;6.780;2024-01-25T07:22:21;9.40;96.30
9984;DHT22;16737;50.932;6.780;2024-01-25T07:24:48;9.40;96.30
9984;DHT22;16737;50.932;6.780;2024-01-25T07:27:15;9.40;96.30
9984;DHT22;16737;50.932;6.780;2024-01-25T07:29:43;9.40;96.30
9984;DHT22;16737;50.932;6.780;2024-01-25T07:32:13;9.40;96.30
9984;DHT22;16737;50.932;6.780;2024-01-25T07:34:40;9.30;96.30
9984;DHT22;16737;50.932;6.780;2024-01-25T07:37:06;9.30;96.20
9984;DHT22;16737;50.932;6.780;2024-01-25T07:39:33;9.30;96.20
9984;DHT22;16737;50.932;6.780;2024-01-25T07:42:00;9.30;96.30
9984;DHT22;16737;50.932;6.780;2024-01-25T07:44:27;9.30;96.30
9984;DHT22;16737;50.932;6.780;2024-01-25T07:46:54;9.30;96.30
9984;DHT22;16737;50.932;6.780;2024-01-25T07:49:23;9.30;96.30
9984;DHT22;16737;50.932;6.780;2024-01-25T07:51:50;9.30;96.40
9984;DHT22;16737;50.932;6.780;2024-01-25T07:54:17;9.30;96.40
9984;DHT22;16737;50.932;6.780;2024-01-25T07:56:44;9.30;96.40
9984;DHT22;16737;50.932;6.780;2024-01-25T07:59:11;9.30;96.50
9984;DHT22;16737;50.932;6.780;2024-01-25T08:01:38;9.40;96.60
9984;DHT22;16737;50.932;6.780;2024-01-25T08:04:05;9.30;96.70
9984;DHT22;16737;50.932;6.780;2024-01-25T08:06:33;9.40;96.60
9984;DHT22;16737;50.932;6.780;2024-01-25T08:09:00;9.40;96.60
9984;DHT22;16737;50.932;6.780;2024-01-25T08:11:28;9.40;96.60
9984;DHT22;16737;50.932;6.780;2024-01-25T08:13:55;9.40;96.70
9984;DHT22;16737;50.932;6.780;2024-01-25T08:16:22;9.40;96.70
9984;DHT22;16737;50.932;6.780;2024-01-25T08:18:49;9.40;96.70
9984;DHT22;16737;50.932;6.780;2024-01-25T08:21:17;9.50;96.70
9984;DHT22;16737;50.932;6.780;2024-01-25T08:23:45;9.50;96.80
9984;DHT22;16737;50.932;6.780;2024-01-25T08:26:13;9.50;96.80
9984;DHT22;16737;50.932;6.780;2024-01-25T08:28:40;9.50;96.90
9984;DHT22;16737;50.932;6.780;2024-01-25T08:31:10;9.60;96.90
9984;DHT22;16737;50.932;6.780;2024-01-25T08:33:38;9.60;97.00
9984;DHT22;16737;50.932;6.780;2024-01-25T08:36:07;9.60;97.00
9984;DHT22;16737;50.932;6.780;2024-01-25T08:38:34;9.70;97.00
9984;DHT22;16737;50.932;6.780;2024-01-25T08:41:02;9.70;97.00
9984;DHT22;16737;50.932;6.780;2024-01-25T08:43:30;9.80;97.10
9984;DHT22;16737;50.932;6.780;2024-01-25T08:45:57;9.80;97.10
9984;DHT22;16737;50.932;6.780;2024-01-25T08:48:24;9.80;97.00
9984;DHT22;16737;50.932;6.780;2024-01-25T08:50:51;9.80;97.00
9984;DHT22;16737;50.932;6.780;2024-01-25T08:53:20;9.80;97.00
9984;DHT22;16737;50.932;6.780;2024-01-25T08:55:48;9.90;97.00
9984;DHT22;16737;50.932;6.780;2024-01-25T08:58:16;9.90;97.10
9984;DHT22;16737;50.932;6.780;2024-01-25T09:00:43;10.00;96.50
9984;DHT22;16737;50.932;6.780;2024-01-25T09:03:10;10.00;96.50
9984;DHT22;16737;50.932;6.780;2024-01-25T09:05:38;10.00;96.40
9984;DHT22;16737;50.932;6.780;2024-01-25T09:08:11;10.00;96.40
9984;DHT22;16737;50.932;6.780;2024-01-25T09:10:40;10.10;96.50
9984;DHT22;16737;50.932;6.780;2024-01-25T09:13:08;10.10;96.50
9984;DHT22;16737;50.932;6.780;2024-01-25T09:15:37;10.10;96.40
9984;DHT22;16737;50.932;6.780;2024-01-25T09:18:05;10.10;96.50
9984;DHT22;16737;50.932;6.780;2024-01-25T09:20:32;10.10;96.40
9984;DHT22;16737;50.932;6.780;2024-01-25T09:23:01;10.10;96.40
9984;DHT22;16737;50.932;6.780;2024-01-25T09:25:28;10.10;96.40
9984;DHT22;16737;50.932;6.780;2024-01-25T09:27:55;10.20;96.50
9984;DHT22;16737;50.932;6.780;2024-01-25T09:30:23;10.20;96.50
9984;DHT22;16737;50.932;6.780;2024-01-25T09:32:51;10.20;96.50
9984;DHT22;16737;50.932;6.780;2024-01-25T09:35:18;10.20;96.60
9984;DHT22;16737;50.932;6.780;2024-01-25T09:37:45;10.20;96.60
9984;DHT22;16737;50.932;6.780;2024-01-25T09:40:12;10.30;96.60
9984;DHT22;16737;50.932;6.780;2024-01-25T09:42:39;10.30;96.60
9984;DHT22;16737;50.932;6.780;2024-01-25T09:45:07;10.30;96.60
9984;DHT22;16737;50.932;6.780;2024-01-25T09:47:36;10.40;96.70
9984;DHT22;16737;50.932;6.780;2024-01-25T09:50:05;10.40;96.70
9984;DHT22;16737;50.932;6.780;2024-01-25T09:52:34;10.50;97.00
9984;DHT22;16737;50.932;6.780;2024-01-25T09:55:04;10.50;96.70
9984;DHT22;16737;50.932;6.780;2024-01-25T09:57:35;10.50;96.70
9984;DHT22;16737;50.932;6.780;2024-01-25T10:00:05;10.60;96.70
9984;DHT22;16737;50.932;6.780;2024-01-25T10:02:37;10.60;96.70
9984;DHT22;16737;50.932;6.780;2024-01-25T10:05:06;10.60;96.60
9984;DHT22;16737;50.932;6.780;2024-01-25T10:07:38;10.70;96.70
9984;DHT22;16737;50.932;6.780;2024-01-25T10:10:07;10.70;96.60
9984;DHT22;16737;50.932;6.780;2024-01-25T10:12:36;10.70;96.60
9984;DHT22;16737;50.932;6.780;2024-01-25T10:15:04;10.80;96.60
9984;DHT22;16737;50.932;6.780;2024-01-25T10:17:33;10.80;96.70
9984;DHT22;16737;50.932;6.780;2024-01-25T10:20:00;10.80;96.70
9984;DHT22;16737;50.932;6.780;2024-01-25T10:22:29;10.90;96.70
9984;DHT22;16737;50.932;6.780;2024-01-25T10:24:57;10.90;96.70
9984;DHT22;16737;50.932;6.780;2024-01-25T10:27:24;10.90;97.00
9984;DHT22;16737;50.932;6.780;2024-01-25T10:29:51;11.00;96.70
9984;DHT22;16737;50.932;6.780;2024-01-25T10:32:18;11.00;96.60
9984;DHT22;16737;50.932;6.780;2024-01-25T10:34:46;11.10;96.70
9984;DHT22;16737;50.932;6.780;2024-01-25T10:37:15;11.10;96.70
9984;DHT22;16737;50.932;6.780;2024-01-25T10:39:44;11.10;96.60
9984;DHT22;16737;50.932;6.780;2024-01-25T10:42:12;11.20;96.70
9984;DHT22;16737;50.932;6.780;2024-01-25T10:44:39;11.20;96.80
9984;DHT22;16737;50.932;6.780;2024-01-25T10:47:06;11.30;96.80
9984;DHT22;16737;50.932;6.780;2024-01-25T10:49:36;11.40;96.90
9984;DHT22;16737;50.932;6.780;2024-01-25T10:52:05;11.40;96.80
9984;DHT22;16737;50.932;6.780;2024-01-25T10:54:33;11.50;96.80
9984;DHT22;16737;50.932;6.780;2024-01-25T10:57:05;11.60;96.70
9984;DHT22;16737;50.932;6.780;2024-01-25T10:59:34;11.60;96.70
9984;DHT22;16737;50.932;6.780;2024-01-25T11:02:02;11.70;96.80
9984;DHT22;16737;50.932;6.780;2024-01-25T11:04:30;11.70;96.70
9984;DHT22;16737;50.932;6.780;2024-01-25T11:07:05;11.80;96.80
9984;DHT22;16737;50.932;6.780;2024-01-25T11:09:35;11.90;96.80
9984;DHT22;16737;50.932;6.780;2024-01-25T11:12:11;12.00;96.80
9984;DHT22;16737;50.932;6.780;2024-01-25T11:14:40;12.00;96.90
9984;DHT22;16737;50.932;6.780;2024-01-25T11:17:18;12.10;96.90
9984;DHT22;16737;50.932;6.780;2024-01-25T11:19:47;12.20;96.80
9984;DHT22;16737;50.932;6.780;2024-01-25T11:22:15;12.20;96.80
9984;DHT22;16737;50.932;6.780;2024-01-25T11:24:42;12.30;96.70
9984;DHT22;16737;50.932;6.780;2024-01-25T11:27:12;12.30;96.60
9984;DHT22;16737;50.932;6.780;2024-01-25T11:29:41;12.40;96.60
9984;DHT22;16737;50.932;6.780;2024-01-25T11:32:09;12.50;96.70
9984;DHT22;16737;50.932;6.780;2024-01-25T11:34:36;12.50;96.70
9984;DHT22;16737;50.932;6.780;2024-01-25T11:37:03;12.60;96.70
9984;DHT22;16737;50.932;6.780;2024-01-25T11:39:32;12.70;96.70
9984;DHT22;16737;50.932;6.780;2024-01-25T11:41:59;12.80;96.80
9984;DHT22;16737;50.932;6.780;2024-01-25T11:44:28;12.90;96.80
9984;DHT22;16737;50.932;6.780;2024-01-25T11:46:55;13.00;96.80
9984;DHT22;16737;50.932;6.780;2024-01-25T11:49:23;13.00;96.50
9984;DHT22;16737;50.932;6.780;2024-01-25T11:51:50;13.10;96.50
9984;DHT22;16737;50.932;6.780;2024-01-25T11:54:18;13.20;96.50
9984;DHT22;16737;50.932;6.780;2024-01-25T11:56:45;13.30;96.40
9984;DHT22;16737;50.932;6.780;2024-01-25T11:59:13;13.40;96.40
9984;DHT22;16737;50.932;6.780;2024-01-25T12:01:42;13.40;96.30
9984;DHT22;16737;50.932;6.780;2024-01-25T12:04:09;13.50;96.20
9984;DHT22;16737;50.932;6.780;2024-01-25T12:06:36;13.60;96.20
9984;DHT22;16737;50.932;6.780;2024-01-25T12:09:07;13.60;96.10
9984;DHT22;16737;50.932;6.780;2024-01-25T12:11:36;13.60;95.90
9984;DHT22;16737;50.932;6.780;2024-01-25T12:14:03;13.70;96.00
9984;DHT22;16737;50.932;6.780;2024-01-25T12:16:31;13.70;95.90
9984;DHT22;16737;50.932;6.780;2024-01-25T12:19:00;13.70;95.70
9984;DHT22;16737;50.932;6.780;2024-01-25T12:21:27;13.80;95.70
9984;DHT22;16737;50.932;6.780;2024-01-25T12:23:54;13.80;95.70
9984;DHT22;16737;50.932;6.780;2024-01-25T12:26:21;13.90;95.60
9984;DHT22;16737;50.932;6.780;2024-01-25T12:28:48;13.90;95.50
9984;DHT22;16737;50.932;6.780;2024-01-25T12:31:15;13.90;95.40
9984;DHT22;16737;50.932;6.780;2024-01-25T12:33:43;13.90;95.30
9984;DHT22;16737;50.932;6.780;2024-01-25T12:36:11;13.90;95.20
9984;DHT22;16737;50.932;6.780;2024-01-25T12:38:38;13.90;95.20
9984;DHT22;16737;50.932;6.780;2024-01-25T12:41:06;14.00;95.30
9984;DHT22;16737;50.932;6.780;2024-01-25T12:43:33;14.00;95.10
9984;DHT22;16737;50.932;6.780;2024-01-25T12:46:01;14.00;95.10
9984;DHT22;16737;50.932;6.780;2024-01-25T12:48:27;13.90;95.10
9984;DHT22;16737;50.932;6.780;2024-01-25T12:50:55;13.90;95.00
9984;DHT22;16737;50.932;6.780;2024-01-25T12:53:24;14.00;95.00
9984;DHT22;16737;50.932;6.780;2024-01-25T12:55:51;14.00;94.80
9984;DHT22;16737;50.932;6.780;2024-01-25T12:58:18;13.90;94.80
9984;DHT22;16737;50.932;6.780;2024-01-25T13:00:45;14.00;95.00
9984;DHT22;16737;50.932;6.780;2024-01-25T13:03:12;14.00;94.90
9984;DHT22;16737;50.932;6.780;2024-01-25T13:05:39;14.00;94.80
9984;DHT22;16737;50.932;6.780;2024-01-25T13:08:07;14.00;94.80
9984;DHT22;16737;50.932;6.780;2024-01-25T13:10:35;14.00;94.70
9984;DHT22;16737;50.932;6.780;2024-01-25T13:13:02;14.00;94.50
9984;DHT22;16737;50.932;6.780;2024-01-25T13:15:29;14.00;94.50
9984;DHT22;16737;50.932;6.780;2024-01-25T13:17:57;14.00;94.50
9984;DHT22;16737;50.932;6.780;2024-01-25T13:20:26;14.00;94.80
9984;DHT22;16737;50.932;6.780;2024-01-25T13:22:53;14.00;94.50
9984;DHT22;16737;50.932;6.780;2024-01-25T13:25:20;14.00;94.50
9984;DHT22;16737;50.932;6.780;2024-01-25T13:27:49;14.00;94.50
9984;DHT22;16737;50.932;6.780;2024-01-25T13:30:17;14.00;94.50
9984;DHT22;16737;50.932;6.780;2024-01-25T13:32:44;14.00;94.50
9984;DHT22;16737;50.932;6.780;2024-01-25T13:35:11;14.00;94.40
9984;DHT22;16737;50.932;6.780;2024-01-25T13:37:38;14.10;94.30
9984;DHT22;16737;50.932;6.780;2024-01-25T13:40:06;14.00;94.20
9984;DHT22;16737;50.932;6.780;2024-01-25T13:42:34;14.00;94.20
9984;DHT22;16737;50.932;6.780;2024-01-25T13:45:04;14.00;94.20
9984;DHT22;16737;50.932;6.780;2024-01-25T13:47:32;14.00;94.10
9984;DHT22;16737;50.932;6.780;2024-01-25T13:50:00;14.00;94.10
9984;DHT22;16737;50.932;6.780;2024-01-25T13:52:26;14.00;94.00
9984;DHT22;16737;50.932;6.780;2024-01-25T13:54:54;14.00;94.00
9984;DHT22;16737;50.932;6.780;2024-01-25T13:57:21;14.00;94.00
9984;DHT22;16737;50.932;6.780;2024-01-25T13:59:49;14.00;94.00
9984;DHT22;16737;50.932;6.780;2024-01-25T14:02:18;14.00;94.00
9984;DHT22;16737;50.932;6.780;2024-01-25T14:04:45;14.00;93.90
9984;DHT22;16737;50.932;6.780;2024-01-25T14:07:15;14.00;94.00
9984;DHT22;16737;50.932;6.780;2024-01-25T14:09:42;14.00;93.90
9984;DHT22;16737;50.932;6.780;2024-01-25T14:12:09;14.00;93.90
9984;DHT22;16737;50.932;6.780;2024-01-25T14:14:36;14.00;93.90
9984;DHT22;16737;50.932;6.780;2024-01-25T14:17:03;14.00;93.90
9984;DHT22;16737;50.932;6.780;2024-01-25T14:19:33;14.00;94.00
9984;DHT22;16737;50.932;6.780;2024-01-25T14:22:00;14.00;93.80
9984;DHT22;16737;50.932;6.780;2024-01-25T14:24:27;14.00;93.80
9984;DHT22;16737;50.932;6.780;2024-01-25T14:26:54;14.00;93.90
9984;DHT22;16737;50.932;6.780;2024-01-25T14:29:21;14.00;93.90
9984;DHT22;16737;50.932;6.780;2024-01-25T14:31:48;14.00;93.80
9984;DHT22;16737;50.932;6.780;2024-01-25T14:34:15;14.00;93.70
9984;DHT22;16737;50.932;6.780;2024-01-25T14:36:44;14.00;93.70
9984;DHT22;16737;50.932;6.780;2024-01-25T14:39:11;14.10;93.70
9984;DHT22;16737;50.932;6.780;2024-01-25T14:41:38;14.00;93.70
9984;DHT22;16737;50.932;6.780;2024-01-25T14:44:05;14.00;93.70
9984;DHT22;16737;50.932;6.780;2024-01-25T14:46:32;14.00;93.70
9984;DHT22;16737;50.932;6.780;2024-01-25T14:48:59;14.00;93.60
9984;DHT22;16737;50.932;6.780;2024-01-25T14:51:26;14.00;93.60
9984;DHT22;16737;50.932;6.780;2024-01-25T14:53:55;14.00;93.60
9984;DHT22;16737;50.932;6.780;2024-01-25T14:56:22;13.90;93.50
9984;DHT22;16737;50.932;6.780;2024-01-25T14:58:49;14.00;93.60
9984;DHT22;16737;50.932;6.780;2024-01-25T15:01:16;13.90;93.60
9984;DHT22;16737;50.932;6.780;2024-01-25T15:03:46;13.90;93.60
9984;DHT22;16737;50.932;6.780;2024-01-25T15:06:13;13.80;93.50
9984;DHT22;16737;50.932;6.780;2024-01-25T15:08:40;13.80;93.50
9984;DHT22;16737;50.932;6.780;2024-01-25T15:11:09;13.80;93.40
9984;DHT22;16737;50.932;6.780;2024-01-25T15:13:37;13.70;93.50
9984;DHT22;16737;50.932;6.780;2024-01-25T15:16:04;13.70;93.40
9984;DHT22;16737;50.932;6.780;2024-01-25T15:18:31;13.60;93.40
9984;DHT22;16737;50.932;6.780;2024-01-25T15:20:58;13.60;93.30
9984;DHT22;16737;50.932;6.780;2024-01-25T15:23:26;13.60;93.30
9984;DHT22;16737;50.932;6.780;2024-01-25T15:25:54;13.60;93.30
9984;DHT22;16737;50.932;6.780;2024-01-25T15:28:23;13.60;93.40
9984;DHT22;16737;50.932;6.780;2024-01-25T15:30:53;13.50;93.30
9984;DHT22;16737;50.932;6.780;2024-01-25T15:33:21;13.50;93.30
9984;DHT22;16737;50.932;6.780;2024-01-25T15:35:49;13.50;93.20
9984;DHT22;16737;50.932;6.780;2024-01-25T15:38:16;13.60;93.20
9984;DHT22;16737;50.932;6.780;2024-01-25T15:40:46;13.60;93.20
9984;DHT22;16737;50.932;6.780;2024-01-25T15:43:16;13.50;93.10
9984;DHT22;16737;50.932;6.780;2024-01-25T15:45:45;13.50;93.10
9984;DHT22;16737;50.932;6.780;2024-01-25T15:48:13;13.50;93.00
9984;DHT22;16737;50.932;6.780;2024-01-25T15:50:41;13.50;93.00
9984;DHT22;16737;50.932;6.780;2024-01-25T15:53:08;13.50;93.00